sensor_id;sensor_type;location;lat;lon;timestamp;P1;durP1;ratioP1;P2;durP2;ratioP2
45039;SDS011;30778;53.574;7.770;2022-10-18T00:00:59;37.00;;;14.85;;
45039;SDS011;30778;53.574;7.770;2022-10-18T00:03:24;42.17;;;14.10;;
45039;SDS011;30778;53.574;7.770;2022-10-18T00:05:50;42.08;;;15.07;;
45039;SDS011;30778;53.574;7.770;2022-10-18T00:08:16;24.13;;;14.68;;
45039;SDS011;30778;53.574;7.770;2022-10-18T00:10:43;30.98;;;13.90;;
45039;SDS011;30778;53.574;7.770;2022-10-18T00:13:09;33.88;;;13.57;;
45039;SDS011;30778;53.574;7.770;2022-10-18T00:15:34;34.63;;;15.07;;
45039;SDS011;30778;53.574;7.770;2022-10-18T00:18:00;31.58;;;14.63;;
45039;SDS011;30778;53.574;7.770;2022-10-18T00:20:25;30.50;;;14.55;;
45039;SDS011;30778;53.574;7.770;2022-10-18T00:22:51;28.48;;;13.43;;
45039;SDS011;30778;53.574;7.770;2022-10-18T00:25:16;29.02;;;15.77;;
45039;SDS011;30778;53.574;7.770;2022-10-18T00:27:42;27.67;;;14.43;;
45039;SDS011;30778;53.574;7.770;2022-10-18T00:30:07;27.23;;;14.32;;
45039;SDS011;30778;53.574;7.770;2022-10-18T00:32:37;31.50;;;14.10;;
45039;SDS011;30778;53.574;7.770;2022-10-18T00:35:04;30.98;;;15.13;;
45039;SDS011;30778;53.574;7.770;2022-10-18T00:37:30;23.85;;;14.77;;
45039;SDS011;30778;53.574;7.770;2022-10-18T00:39:56;32.63;;;14.60;;
45039;SDS011;30778;53.574;7.770;2022-10-18T00:42:21;28.00;;;13.73;;
45039;SDS011;30778;53.574;7.770;2022-10-18T00:47:16;35.95;;;14.05;;
45039;SDS011;30778;53.574;7.770;2022-10-18T00:49:52;36.55;;;15.30;;
45039;SDS011;30778;53.574;7.770;2022-10-18T00:52:38;34.70;;;14.65;;
45039;SDS011;30778;53.574;7.770;2022-10-18T00:55:07;32.85;;;14.43;;
45039;SDS011;30778;53.574;7.770;2022-10-18T00:57:34;24.75;;;13.27;;
45039;SDS011;30778;53.574;7.770;2022-10-18T01:00:00;31.45;;;14.75;;
45039;SDS011;30778;53.574;7.770;2022-10-18T01:02:31;26.35;;;13.65;;
45039;SDS011;30778;53.574;7.770;2022-10-18T01:04:57;27.08;;;13.82;;
45039;SDS011;30778;53.574;7.770;2022-10-18T01:07:26;31.63;;;14.07;;
45039;SDS011;30778;53.574;7.770;2022-10-18T01:10:27;23.70;;;13.07;;
45039;SDS011;30778;53.574;7.770;2022-10-18T01:21:12;19.90;;;10.50;;
45039;SDS011;30778;53.574;7.770;2022-10-18T01:32:11;19.20;;;10.90;;
45039;SDS011;30778;53.574;7.770;2022-10-18T01:34:42;13.88;;;9.48;;
45039;SDS011;30778;53.574;7.770;2022-10-18T01:37:12;38.78;;;11.60;;
45039;SDS011;30778;53.574;7.770;2022-10-18T01:39:42;35.03;;;11.88;;
45039;SDS011;30778;53.574;7.770;2022-10-18T01:42:10;29.52;;;10.32;;
45039;SDS011;30778;53.574;7.770;2022-10-18T01:44:38;26.80;;;11.75;;
45039;SDS011;30778;53.574;7.770;2022-10-18T01:47:06;18.52;;;10.68;;
45039;SDS011;30778;53.574;7.770;2022-10-18T01:49:34;22.92;;;11.18;;
45039;SDS011;30778;53.574;7.770;2022-10-18T01:51:59;15.35;;;10.15;;
45039;SDS011;30778;53.574;7.770;2022-10-18T01:54:26;23.50;;;10.73;;
45039;SDS011;30778;53.574;7.770;2022-10-18T01:56:57;20.23;;;10.55;;
45039;SDS011;30778;53.574;7.770;2022-10-18T02:07:46;48.22;;;11.77;;
45039;SDS011;30778;53.574;7.770;2022-10-18T02:10:33;20.48;;;11.60;;
45039;SDS011;30778;53.574;7.770;2022-10-18T02:13:07;23.08;;;10.80;;
45039;SDS011;30778;53.574;7.770;2022-10-18T02:15:36;27.95;;;12.23;;
45039;SDS011;30778;53.574;7.770;2022-10-18T02:18:06;20.50;;;10.57;;
45039;SDS011;30778;53.574;7.770;2022-10-18T02:20:35;22.92;;;11.38;;
45039;SDS011;30778;53.574;7.770;2022-10-18T02:23:03;47.53;;;12.45;;
45039;SDS011;30778;53.574;7.770;2022-10-18T02:25:33;22.98;;;11.15;;
45039;SDS011;30778;53.574;7.770;2022-10-18T02:27:59;23.33;;;11.50;;
45039;SDS011;30778;53.574;7.770;2022-10-18T02:36:31;31.50;;;12.20;;
45039;SDS011;30778;53.574;7.770;2022-10-18T02:39:10;26.77;;;11.20;;
45039;SDS011;30778;53.574;7.770;2022-10-18T02:41:39;24.90;;;12.02;;
45039;SDS011;30778;53.574;7.770;2022-10-18T02:44:05;19.63;;;11.70;;
45039;SDS011;30778;53.574;7.770;2022-10-18T02:46:32;24.67;;;12.27;;
45039;SDS011;30778;53.574;7.770;2022-10-18T02:48:58;18.45;;;11.65;;
45039;SDS011;30778;53.574;7.770;2022-10-18T02:51:23;39.60;;;13.38;;
45039;SDS011;30778;53.574;7.770;2022-10-18T02:53:49;41.22;;;11.98;;
45039;SDS011;30778;53.574;7.770;2022-10-18T02:56:14;37.30;;;12.55;;
45039;SDS011;30778;53.574;7.770;2022-10-18T02:58:40;28.40;;;11.05;;
45039;SDS011;30778;53.574;7.770;2022-10-18T03:01:06;42.95;;;11.68;;
45039;SDS011;30778;53.574;7.770;2022-10-18T03:03:31;27.05;;;12.30;;
45039;SDS011;30778;53.574;7.770;2022-10-18T03:05:57;34.17;;;11.25;;
45039;SDS011;30778;53.574;7.770;2022-10-18T03:08:22;30.38;;;12.88;;
45039;SDS011;30778;53.574;7.770;2022-10-18T03:10:48;26.98;;;12.52;;
45039;SDS011;30778;53.574;7.770;2022-10-18T03:13:13;41.25;;;11.85;;
45039;SDS011;30778;53.574;7.770;2022-10-18T03:15:39;48.10;;;12.63;;
45039;SDS011;30778;53.574;7.770;2022-10-18T03:18:04;28.70;;;11.50;;
45039;SDS011;30778;53.574;7.770;2022-10-18T03:20:30;20.95;;;10.85;;
45039;SDS011;30778;53.574;7.770;2022-10-18T03:22:55;29.77;;;12.00;;
45039;SDS011;30778;53.574;7.770;2022-10-18T03:25:21;23.55;;;12.40;;
45039;SDS011;30778;53.574;7.770;2022-10-18T03:27:46;34.65;;;11.65;;
45039;SDS011;30778;53.574;7.770;2022-10-18T03:30:12;35.78;;;13.88;;
45039;SDS011;30778;53.574;7.770;2022-10-18T03:32:38;39.17;;;11.77;;
45039;SDS011;30778;53.574;7.770;2022-10-18T03:35:04;29.98;;;11.65;;
45039;SDS011;30778;53.574;7.770;2022-10-18T03:37:32;20.92;;;11.15;;
45039;SDS011;30778;53.574;7.770;2022-10-18T03:39:57;23.45;;;11.73;;
45039;SDS011;30778;53.574;7.770;2022-10-18T03:42:22;27.27;;;11.50;;
45039;SDS011;30778;53.574;7.770;2022-10-18T03:44:48;24.77;;;10.45;;
45039;SDS011;30778;53.574;7.770;2022-10-18T03:47:13;23.30;;;10.43;;
45039;SDS011;30778;53.574;7.770;2022-10-18T03:49:39;18.33;;;9.88;;
45039;SDS011;30778;53.574;7.770;2022-10-18T03:52:04;30.02;;;11.15;;
45039;SDS011;30778;53.574;7.770;2022-10-18T03:54:30;26.98;;;10.77;;
45039;SDS011;30778;53.574;7.770;2022-10-18T03:56:55;22.83;;;11.40;;
45039;SDS011;30778;53.574;7.770;2022-10-18T03:59:21;30.55;;;11.88;;
45039;SDS011;30778;53.574;7.770;2022-10-18T04:01:47;28.77;;;11.35;;
45039;SDS011;30778;53.574;7.770;2022-10-18T04:04:13;28.33;;;10.82;;
45039;SDS011;30778;53.574;7.770;2022-10-18T04:06:38;27.50;;;11.68;;
45039;SDS011;30778;53.574;7.770;2022-10-18T04:09:04;22.38;;;10.77;;
45039;SDS011;30778;53.574;7.770;2022-10-18T04:11:29;18.77;;;9.98;;
45039;SDS011;30778;53.574;7.770;2022-10-18T04:13:55;24.25;;;11.02;;
45039;SDS011;30778;53.574;7.770;2022-10-18T04:16:20;33.88;;;11.52;;
45039;SDS011;30778;53.574;7.770;2022-10-18T04:18:46;28.17;;;10.88;;
45039;SDS011;30778;53.574;7.770;2022-10-18T04:21:11;25.30;;;9.98;;
45039;SDS011;30778;53.574;7.770;2022-10-18T04:23:37;33.88;;;11.07;;
45039;SDS011;30778;53.574;7.770;2022-10-18T04:26:02;27.35;;;10.88;;
45039;SDS011;30778;53.574;7.770;2022-10-18T04:28:28;23.65;;;11.45;;
45039;SDS011;30778;53.574;7.770;2022-10-18T04:30:53;37.13;;;11.00;;
45039;SDS011;30778;53.574;7.770;2022-10-18T04:33:19;29.63;;;10.73;;
45039;SDS011;30778;53.574;7.770;2022-10-18T04:35:45;28.20;;;10.82;;
45039;SDS011;30778;53.574;7.770;2022-10-18T04:38:11;26.15;;;12.23;;
45039;SDS011;30778;53.574;7.770;2022-10-18T04:40:38;27.45;;;10.77;;
45039;SDS011;30778;53.574;7.770;2022-10-18T04:43:03;20.05;;;10.95;;
45039;SDS011;30778;53.574;7.770;2022-10-18T04:45:29;35.55;;;11.07;;
45039;SDS011;30778;53.574;7.770;2022-10-18T04:47:54;30.33;;;11.80;;
45039;SDS011;30778;53.574;7.770;2022-10-18T04:50:20;26.40;;;10.50;;
45039;SDS011;30778;53.574;7.770;2022-10-18T04:52:45;25.27;;;10.40;;
45039;SDS011;30778;53.574;7.770;2022-10-18T04:55:11;31.10;;;10.75;;
45039;SDS011;30778;53.574;7.770;2022-10-18T04:57:36;22.20;;;9.75;;
45039;SDS011;30778;53.574;7.770;2022-10-18T05:00:02;26.88;;;10.60;;
45039;SDS011;30778;53.574;7.770;2022-10-18T05:02:28;27.05;;;10.65;;
45039;SDS011;30778;53.574;7.770;2022-10-18T05:04:54;23.30;;;10.40;;
45039;SDS011;30778;53.574;7.770;2022-10-18T05:07:19;31.88;;;10.80;;
45039;SDS011;30778;53.574;7.770;2022-10-18T05:09:45;27.90;;;10.48;;
45039;SDS011;30778;53.574;7.770;2022-10-18T05:12:10;22.67;;;10.27;;
45039;SDS011;30778;53.574;7.770;2022-10-18T05:14:36;25.05;;;10.57;;
45039;SDS011;30778;53.574;7.770;2022-10-18T05:17:01;29.25;;;10.40;;
45039;SDS011;30778;53.574;7.770;2022-10-18T05:19:27;24.05;;;9.63;;
45039;SDS011;30778;53.574;7.770;2022-10-18T05:21:52;26.27;;;10.52;;
45039;SDS011;30778;53.574;7.770;2022-10-18T05:24:17;29.02;;;9.93;;
45039;SDS011;30778;53.574;7.770;2022-10-18T05:26:43;22.42;;;9.73;;
45039;SDS011;30778;53.574;7.770;2022-10-18T05:29:08;24.63;;;9.23;;
45039;SDS011;30778;53.574;7.770;2022-10-18T05:31:34;26.40;;;10.32;;
45039;SDS011;30778;53.574;7.770;2022-10-18T05:33:59;33.05;;;10.48;;
45039;SDS011;30778;53.574;7.770;2022-10-18T05:36:26;27.17;;;11.23;;
45039;SDS011;30778;53.574;7.770;2022-10-18T05:38:52;31.15;;;9.93;;
45039;SDS011;30778;53.574;7.770;2022-10-18T05:41:18;50.38;;;10.32;;
45039;SDS011;30778;53.574;7.770;2022-10-18T05:43:43;45.85;;;10.00;;
45039;SDS011;30778;53.574;7.770;2022-10-18T05:46:09;25.55;;;9.35;;
45039;SDS011;30778;53.574;7.770;2022-10-18T05:48:35;21.55;;;8.40;;
45039;SDS011;30778;53.574;7.770;2022-10-18T05:51:00;39.85;;;10.00;;
45039;SDS011;30778;53.574;7.770;2022-10-18T05:53:26;24.33;;;8.63;;
45039;SDS011;30778;53.574;7.770;2022-10-18T05:55:53;36.13;;;10.40;;
45039;SDS011;30778;53.574;7.770;2022-10-18T05:58:18;38.78;;;9.05;;
45039;SDS011;30778;53.574;7.770;2022-10-18T06:00:44;51.10;;;8.98;;
45039;SDS011;30778;53.574;7.770;2022-10-18T06:03:09;62.50;;;9.90;;
45039;SDS011;30778;53.574;7.770;2022-10-18T06:05:35;45.55;;;9.27;;
45039;SDS011;30778;53.574;7.770;2022-10-18T06:08:00;59.83;;;10.68;;
45039;SDS011;30778;53.574;7.770;2022-10-18T06:10:25;30.90;;;8.48;;
45039;SDS011;30778;53.574;7.770;2022-10-18T06:12:51;19.42;;;9.32;;
45039;SDS011;30778;53.574;7.770;2022-10-18T06:15:17;73.85;;;10.85;;
45039;SDS011;30778;53.574;7.770;2022-10-18T06:17:42;22.67;;;9.23;;
45039;SDS011;30778;53.574;7.770;2022-10-18T06:20:08;53.25;;;9.63;;
45039;SDS011;30778;53.574;7.770;2022-10-18T06:22:33;49.15;;;9.32;;
45039;SDS011;30778;53.574;7.770;2022-10-18T06:24:59;68.78;;;9.75;;
45039;SDS011;30778;53.574;7.770;2022-10-18T06:27:24;25.17;;;8.88;;
45039;SDS011;30778;53.574;7.770;2022-10-18T06:29:50;58.65;;;11.02;;
45039;SDS011;30778;53.574;7.770;2022-10-18T06:32:15;63.63;;;9.93;;
45039;SDS011;30778;53.574;7.770;2022-10-18T06:34:41;41.95;;;9.70;;
45039;SDS011;30778;53.574;7.770;2022-10-18T06:37:06;28.23;;;10.02;;
45039;SDS011;30778;53.574;7.770;2022-10-18T06:39:32;29.58;;;9.05;;
45039;SDS011;30778;53.574;7.770;2022-10-18T06:41:58;42.30;;;8.63;;
45039;SDS011;30778;53.574;7.770;2022-10-18T06:44:23;71.00;;;10.52;;
45039;SDS011;30778;53.574;7.770;2022-10-18T06:46:49;27.05;;;9.45;;
45039;SDS011;30778;53.574;7.770;2022-10-18T06:49:15;46.85;;;8.52;;
45039;SDS011;30778;53.574;7.770;2022-10-18T06:51:41;18.63;;;8.27;;
45039;SDS011;30778;53.574;7.770;2022-10-18T06:54:08;27.92;;;8.32;;
45039;SDS011;30778;53.574;7.770;2022-10-18T06:56:34;38.08;;;8.88;;
45039;SDS011;30778;53.574;7.770;2022-10-18T06:59:00;47.00;;;9.02;;
45039;SDS011;30778;53.574;7.770;2022-10-18T07:01:26;31.23;;;10.07;;
45039;SDS011;30778;53.574;7.770;2022-10-18T07:03:55;13.93;;;7.70;;
45039;SDS011;30778;53.574;7.770;2022-10-18T07:06:21;27.35;;;7.53;;
45039;SDS011;30778;53.574;7.770;2022-10-18T07:08:48;47.22;;;8.80;;
45039;SDS011;30778;53.574;7.770;2022-10-18T07:11:16;47.60;;;7.82;;
45039;SDS011;30778;53.574;7.770;2022-10-18T07:13:43;21.15;;;7.63;;
45039;SDS011;30778;53.574;7.770;2022-10-18T07:16:10;33.85;;;9.30;;
45039;SDS011;30778;53.574;7.770;2022-10-18T07:18:38;21.45;;;6.43;;
45039;SDS011;30778;53.574;7.770;2022-10-18T07:21:07;18.15;;;7.80;;
45039;SDS011;30778;53.574;7.770;2022-10-18T07:23:34;26.50;;;7.03;;
45039;SDS011;30778;53.574;7.770;2022-10-18T07:26:02;28.77;;;8.73;;
45039;SDS011;30778;53.574;7.770;2022-10-18T07:28:29;23.27;;;7.53;;
45039;SDS011;30778;53.574;7.770;2022-10-18T07:30:55;14.05;;;7.53;;
45039;SDS011;30778;53.574;7.770;2022-10-18T07:33:20;21.45;;;6.72;;
45039;SDS011;30778;53.574;7.770;2022-10-18T07:35:46;17.05;;;6.97;;
45039;SDS011;30778;53.574;7.770;2022-10-18T07:38:12;21.98;;;7.03;;
45039;SDS011;30778;53.574;7.770;2022-10-18T07:40:37;21.88;;;7.32;;
45039;SDS011;30778;53.574;7.770;2022-10-18T07:43:03;21.05;;;6.63;;
45039;SDS011;30778;53.574;7.770;2022-10-18T07:45:29;19.23;;;7.22;;
45039;SDS011;30778;53.574;7.770;2022-10-18T07:47:55;15.95;;;7.78;;
45039;SDS011;30778;53.574;7.770;2022-10-18T07:50:20;20.23;;;6.97;;
45039;SDS011;30778;53.574;7.770;2022-10-18T07:52:46;17.95;;;7.57;;
45039;SDS011;30778;53.574;7.770;2022-10-18T07:55:12;25.67;;;8.32;;
45039;SDS011;30778;53.574;7.770;2022-10-18T07:57:37;17.83;;;6.45;;
45039;SDS011;30778;53.574;7.770;2022-10-18T08:00:03;20.45;;;7.38;;
45039;SDS011;30778;53.574;7.770;2022-10-18T08:02:36;19.45;;;7.35;;
45039;SDS011;30778;53.574;7.770;2022-10-18T08:05:02;21.27;;;8.48;;
45039;SDS011;30778;53.574;7.770;2022-10-18T08:07:27;18.38;;;8.35;;
45039;SDS011;30778;53.574;7.770;2022-10-18T08:09:53;17.63;;;7.22;;
45039;SDS011;30778;53.574;7.770;2022-10-18T08:12:18;19.98;;;8.90;;
45039;SDS011;30778;53.574;7.770;2022-10-18T08:14:44;17.77;;;7.60;;
45039;SDS011;30778;53.574;7.770;2022-10-18T08:17:09;16.45;;;7.80;;
45039;SDS011;30778;53.574;7.770;2022-10-18T08:19:34;14.48;;;8.70;;
45039;SDS011;30778;53.574;7.770;2022-10-18T08:22:00;23.48;;;8.63;;
45039;SDS011;30778;53.574;7.770;2022-10-18T08:24:25;16.50;;;8.63;;
45039;SDS011;30778;53.574;7.770;2022-10-18T08:26:51;15.65;;;7.97;;
45039;SDS011;30778;53.574;7.770;2022-10-18T08:29:16;17.85;;;6.68;;
45039;SDS011;30778;53.574;7.770;2022-10-18T08:31:42;12.95;;;6.68;;
45039;SDS011;30778;53.574;7.770;2022-10-18T08:34:07;14.23;;;5.90;;
45039;SDS011;30778;53.574;7.770;2022-10-18T08:36:33;13.52;;;6.70;;
45039;SDS011;30778;53.574;7.770;2022-10-18T08:38:58;12.68;;;6.00;;
45039;SDS011;30778;53.574;7.770;2022-10-18T08:44:06;10.13;;;5.38;;
45039;SDS011;30778;53.574;7.770;2022-10-18T08:46:43;12.25;;;6.60;;
45039;SDS011;30778;53.574;7.770;2022-10-18T08:49:14;15.02;;;6.15;;
45039;SDS011;30778;53.574;7.770;2022-10-18T08:51:48;15.43;;;6.78;;
45039;SDS011;30778;53.574;7.770;2022-10-18T08:54:33;18.23;;;6.68;;
45039;SDS011;30778;53.574;7.770;2022-10-18T08:57:04;12.38;;;5.72;;
45039;SDS011;30778;53.574;7.770;2022-10-18T08:59:39;9.13;;;4.78;;
45039;SDS011;30778;53.574;7.770;2022-10-18T09:16:12;6.38;;;3.10;;
45039;SDS011;30778;53.574;7.770;2022-10-18T09:21:53;7.30;;;3.60;;
45039;SDS011;30778;53.574;7.770;2022-10-18T09:24:12;7.47;;;2.80;;
45039;SDS011;30778;53.574;7.770;2022-10-18T09:26:46;9.57;;;3.40;;
45039;SDS011;30778;53.574;7.770;2022-10-18T09:32:13;6.30;;;1.92;;
45039;SDS011;30778;53.574;7.770;2022-10-18T09:37:49;7.38;;;2.20;;
45039;SDS011;30778;53.574;7.770;2022-10-18T09:40:27;7.30;;;1.40;;
45039;SDS011;30778;53.574;7.770;2022-10-18T09:42:59;3.97;;;1.50;;
45039;SDS011;30778;53.574;7.770;2022-10-18T09:48:12;4.63;;;1.60;;
45039;SDS011;30778;53.574;7.770;2022-10-18T09:50:39;7.50;;;2.22;;
45039;SDS011;30778;53.574;7.770;2022-10-18T09:53:19;5.30;;;2.20;;
45039;SDS011;30778;53.574;7.770;2022-10-18T09:55:57;6.88;;;1.25;;
45039;SDS011;30778;53.574;7.770;2022-10-18T09:58:27;11.75;;;2.08;;
45039;SDS011;30778;53.574;7.770;2022-10-18T10:01:04;6.20;;;1.38;;
45039;SDS011;30778;53.574;7.770;2022-10-18T10:03:30;8.10;;;1.45;;
45039;SDS011;30778;53.574;7.770;2022-10-18T10:06:30;8.10;;;1.58;;
45039;SDS011;30778;53.574;7.770;2022-10-18T10:08:52;10.60;;;0.88;;
45039;SDS011;30778;53.574;7.770;2022-10-18T10:13:51;5.57;;;1.10;;
45039;SDS011;30778;53.574;7.770;2022-10-18T10:16:16;11.40;;;1.60;;
45039;SDS011;30778;53.574;7.770;2022-10-18T10:18:42;4.95;;;1.15;;
45039;SDS011;30778;53.574;7.770;2022-10-18T10:21:13;6.80;;;1.15;;
45039;SDS011;30778;53.574;7.770;2022-10-18T10:23:50;7.38;;;0.77;;
45039;SDS011;30778;53.574;7.770;2022-10-18T10:26:23;5.43;;;0.90;;
45039;SDS011;30778;53.574;7.770;2022-10-18T10:28:53;4.38;;;1.17;;
45039;SDS011;30778;53.574;7.770;2022-10-18T10:36:46;6.95;;;1.05;;
45039;SDS011;30778;53.574;7.770;2022-10-18T10:39:14;8.13;;;0.90;;
45039;SDS011;30778;53.574;7.770;2022-10-18T10:41:45;13.45;;;1.23;;
45039;SDS011;30778;53.574;7.770;2022-10-18T10:44:19;8.38;;;0.70;;
45039;SDS011;30778;53.574;7.770;2022-10-18T10:46:49;8.00;;;0.47;;
45039;SDS011;30778;53.574;7.770;2022-10-18T10:51:52;8.38;;;0.50;;
45039;SDS011;30778;53.574;7.770;2022-10-18T10:54:24;7.38;;;0.60;;
45039;SDS011;30778;53.574;7.770;2022-10-18T10:57:02;4.53;;;0.77;;
45039;SDS011;30778;53.574;7.770;2022-10-18T10:59:50;12.88;;;0.93;;
45039;SDS011;30778;53.574;7.770;2022-10-18T11:02:20;9.27;;;1.33;;
45039;SDS011;30778;53.574;7.770;2022-10-18T11:04:52;15.40;;;1.27;;
45039;SDS011;30778;53.574;7.770;2022-10-18T11:07:26;11.88;;;1.17;;
45039;SDS011;30778;53.574;7.770;2022-10-18T11:17:47;11.43;;;0.38;;
45039;SDS011;30778;53.574;7.770;2022-10-18T11:23:20;6.88;;;0.32;;
45039;SDS011;30778;53.574;7.770;2022-10-18T11:31:40;7.70;;;0.60;;
45039;SDS011;30778;53.574;7.770;2022-10-18T11:34:46;11.77;;;1.25;;
45039;SDS011;30778;53.574;7.770;2022-10-18T11:39:57;7.03;;;0.63;;
45039;SDS011;30778;53.574;7.770;2022-10-18T11:58:46;4.43;;;0.28;;
45039;SDS011;30778;53.574;7.770;2022-10-18T12:04:19;11.52;;;0.55;;
45039;SDS011;30778;53.574;7.770;2022-10-18T12:06:49;8.27;;;1.50;;
45039;SDS011;30778;53.574;7.770;2022-10-18T12:12:16;13.52;;;0.73;;
45039;SDS011;30778;53.574;7.770;2022-10-18T12:17:19;5.50;;;0.63;;
45039;SDS011;30778;53.574;7.770;2022-10-18T12:19:52;6.13;;;0.45;;
45039;SDS011;30778;53.574;7.770;2022-10-18T12:25:11;12.02;;;0.75;;
45039;SDS011;30778;53.574;7.770;2022-10-18T12:30:45;9.52;;;0.50;;
45039;SDS011;30778;53.574;7.770;2022-10-18T12:33:16;5.78;;;0.30;;
45039;SDS011;30778;53.574;7.770;2022-10-18T12:38:31;6.97;;;0.35;;
45039;SDS011;30778;53.574;7.770;2022-10-18T12:40:59;5.40;;;0.73;;
45039;SDS011;30778;53.574;7.770;2022-10-18T12:43:29;11.95;;;1.08;;
45039;SDS011;30778;53.574;7.770;2022-10-18T12:46:02;7.35;;;1.23;;
45039;SDS011;30778;53.574;7.770;2022-10-18T12:51:05;7.15;;;0.50;;
45039;SDS011;30778;53.574;7.770;2022-10-18T12:53:42;6.07;;;0.55;;
45039;SDS011;30778;53.574;7.770;2022-10-18T13:09:21;4.72;;;0.73;;
45039;SDS011;30778;53.574;7.770;2022-10-18T13:20:30;10.75;;;0.50;;
45039;SDS011;30778;53.574;7.770;2022-10-18T13:26:07;5.75;;;0.50;;
45039;SDS011;30778;53.574;7.770;2022-10-18T13:31:38;3.60;;;0.50;;
45039;SDS011;30778;53.574;7.770;2022-10-18T13:36:56;5.50;;;0.52;;
45039;SDS011;30778;53.574;7.770;2022-10-18T13:39:25;7.97;;;0.70;;
45039;SDS011;30778;53.574;7.770;2022-10-18T13:44:31;6.68;;;0.98;;
45039;SDS011;30778;53.574;7.770;2022-10-18T14:02:39;5.82;;;0.85;;
45039;SDS011;30778;53.574;7.770;2022-10-18T14:08:02;5.05;;;0.38;;
45039;SDS011;30778;53.574;7.770;2022-10-18T14:10:38;4.53;;;0.30;;
45039;SDS011;30778;53.574;7.770;2022-10-18T14:13:20;9.98;;;0.93;;
45039;SDS011;30778;53.574;7.770;2022-10-18T14:15:50;7.13;;;0.40;;
45039;SDS011;30778;53.574;7.770;2022-10-18T14:18:26;2.92;;;0.63;;
45039;SDS011;30778;53.574;7.770;2022-10-18T14:20:57;4.35;;;0.30;;
45039;SDS011;30778;53.574;7.770;2022-10-18T14:23:30;4.07;;;0.10;;
45039;SDS011;30778;53.574;7.770;2022-10-18T14:26:06;10.13;;;0.57;;
45039;SDS011;30778;53.574;7.770;2022-10-18T14:28:36;4.10;;;0.35;;
45039;SDS011;30778;53.574;7.770;2022-10-18T14:31:03;8.40;;;0.85;;
45039;SDS011;30778;53.574;7.770;2022-10-18T14:33:41;5.03;;;0.30;;
45039;SDS011;30778;53.574;7.770;2022-10-18T14:36:12;9.93;;;0.85;;
45039;SDS011;30778;53.574;7.770;2022-10-18T14:38:50;4.85;;;0.20;;
45039;SDS011;30778;53.574;7.770;2022-10-18T14:43:44;3.20;;;0.20;;
45039;SDS011;30778;53.574;7.770;2022-10-18T14:46:22;4.35;;;0.63;;
45039;SDS011;30778;53.574;7.770;2022-10-18T14:48:55;6.35;;;0.40;;
45039;SDS011;30778;53.574;7.770;2022-10-18T14:51:25;4.38;;;0.28;;
45039;SDS011;30778;53.574;7.770;2022-10-18T14:53:52;7.25;;;0.47;;
45039;SDS011;30778;53.574;7.770;2022-10-18T14:56:26;4.38;;;0.50;;
45039;SDS011;30778;53.574;7.770;2022-10-18T14:58:54;8.02;;;0.30;;
45039;SDS011;30778;53.574;7.770;2022-10-18T15:01:22;4.03;;;0.50;;
45039;SDS011;30778;53.574;7.770;2022-10-18T15:03:50;10.10;;;0.88;;
45039;SDS011;30778;53.574;7.770;2022-10-18T15:06:20;5.80;;;0.45;;
45039;SDS011;30778;53.574;7.770;2022-10-18T15:11:15;2.90;;;0.20;;
45039;SDS011;30778;53.574;7.770;2022-10-18T15:13:46;5.30;;;0.47;;
45039;SDS011;30778;53.574;7.770;2022-10-18T15:16:16;4.60;;;0.43;;
45039;SDS011;30778;53.574;7.770;2022-10-18T15:18:57;8.48;;;0.50;;
45039;SDS011;30778;53.574;7.770;2022-10-18T15:21:24;2.50;;;0.10;;
45039;SDS011;30778;53.574;7.770;2022-10-18T15:23:50;4.05;;;0.55;;
45039;SDS011;30778;53.574;7.770;2022-10-18T15:26:20;3.30;;;0.30;;
45039;SDS011;30778;53.574;7.770;2022-10-18T15:28:49;4.95;;;0.57;;
45039;SDS011;30778;53.574;7.770;2022-10-18T15:31:25;24.58;;;0.90;;
45039;SDS011;30778;53.574;7.770;2022-10-18T15:33:53;8.90;;;0.60;;
45039;SDS011;30778;53.574;7.770;2022-10-18T15:36:32;5.15;;;0.20;;
45039;SDS011;30778;53.574;7.770;2022-10-18T15:39:13;3.33;;;0.50;;
45039;SDS011;30778;53.574;7.770;2022-10-18T15:41:59;7.15;;;0.25;;
45039;SDS011;30778;53.574;7.770;2022-10-18T15:44:27;2.80;;;0.30;;
45039;SDS011;30778;53.574;7.770;2022-10-18T15:54:46;4.68;;;0.63;;
45039;SDS011;30778;53.574;7.770;2022-10-18T15:57:11;4.18;;;0.30;;
45039;SDS011;30778;53.574;7.770;2022-10-18T15:59:38;4.85;;;0.90;;
45039;SDS011;30778;53.574;7.770;2022-10-18T16:02:15;2.38;;;0.63;;
45039;SDS011;30778;53.574;7.770;2022-10-18T16:04:41;5.43;;;0.30;;
45039;SDS011;30778;53.574;7.770;2022-10-18T16:07:08;3.92;;;0.50;;
45039;SDS011;30778;53.574;7.770;2022-10-18T16:09:34;5.60;;;0.40;;
45039;SDS011;30778;53.574;7.770;2022-10-18T16:12:00;6.13;;;0.35;;
45039;SDS011;30778;53.574;7.770;2022-10-18T16:14:26;3.08;;;0.28;;
45039;SDS011;30778;53.574;7.770;2022-10-18T16:16:53;5.18;;;0.40;;
45039;SDS011;30778;53.574;7.770;2022-10-18T16:19:20;6.50;;;0.30;;
45039;SDS011;30778;53.574;7.770;2022-10-18T16:21:47;6.53;;;0.77;;
45039;SDS011;30778;53.574;7.770;2022-10-18T16:24:13;5.78;;;0.50;;
45039;SDS011;30778;53.574;7.770;2022-10-18T16:26:39;2.83;;;0.40;;
45039;SDS011;30778;53.574;7.770;2022-10-18T16:29:05;4.20;;;0.45;;
45039;SDS011;30778;53.574;7.770;2022-10-18T16:31:32;9.82;;;0.90;;
45039;SDS011;30778;53.574;7.770;2022-10-18T16:33:59;7.05;;;0.30;;
45039;SDS011;30778;53.574;7.770;2022-10-18T16:36:30;3.13;;;0.30;;
45039;SDS011;30778;53.574;7.770;2022-10-18T16:38:58;3.20;;;0.20;;
45039;SDS011;30778;53.574;7.770;2022-10-18T16:41:26;5.07;;;0.52;;
45039;SDS011;30778;53.574;7.770;2022-10-18T16:43:52;6.90;;;0.47;;
45039;SDS011;30778;53.574;7.770;2022-10-18T16:46:19;1.13;;;0.10;;
45039;SDS011;30778;53.574;7.770;2022-10-18T16:48:46;2.75;;;0.40;;
45039;SDS011;30778;53.574;7.770;2022-10-18T16:51:13;1.00;;;0.10;;
45039;SDS011;30778;53.574;7.770;2022-10-18T16:53:39;2.00;;;0.22;;
45039;SDS011;30778;53.574;7.770;2022-10-18T16:56:06;1.63;;;0.20;;
45039;SDS011;30778;53.574;7.770;2022-10-18T16:58:37;5.07;;;0.40;;
45039;SDS011;30778;53.574;7.770;2022-10-18T17:01:03;2.25;;;0.30;;
45039;SDS011;30778;53.574;7.770;2022-10-18T17:03:28;3.78;;;0.55;;
45039;SDS011;30778;53.574;7.770;2022-10-18T17:05:53;7.03;;;0.47;;
45039;SDS011;30778;53.574;7.770;2022-10-18T17:08:24;3.83;;;0.43;;
45039;SDS011;30778;53.574;7.770;2022-10-18T17:10:52;7.45;;;0.30;;
45039;SDS011;30778;53.574;7.770;2022-10-18T17:13:20;1.00;;;0.30;;
45039;SDS011;30778;53.574;7.770;2022-10-18T17:15:47;5.45;;;0.20;;
45039;SDS011;30778;53.574;7.770;2022-10-18T17:18:18;6.05;;;0.30;;
45039;SDS011;30778;53.574;7.770;2022-10-18T17:20:46;3.97;;;0.45;;
45039;SDS011;30778;53.574;7.770;2022-10-18T17:23:12;4.03;;;0.73;;
45039;SDS011;30778;53.574;7.770;2022-10-18T17:25:38;2.55;;;0.22;;
45039;SDS011;30778;53.574;7.770;2022-10-18T17:28:09;3.03;;;0.10;;
45039;SDS011;30778;53.574;7.770;2022-10-18T17:30:37;6.45;;;0.20;;
45039;SDS011;30778;53.574;7.770;2022-10-18T17:33:03;2.72;;;0.20;;
45039;SDS011;30778;53.574;7.770;2022-10-18T17:35:29;6.00;;;0.40;;
45039;SDS011;30778;53.574;7.770;2022-10-18T17:37:54;3.25;;;0.10;;
45039;SDS011;30778;53.574;7.770;2022-10-18T17:40:20;2.33;;;0.32;;
45039;SDS011;30778;53.574;7.770;2022-10-18T17:42:49;4.07;;;0.40;;
45039;SDS011;30778;53.574;7.770;2022-10-18T17:45:16;5.45;;;0.28;;
45039;SDS011;30778;53.574;7.770;2022-10-18T17:47:42;3.28;;;0.20;;
45039;SDS011;30778;53.574;7.770;2022-10-18T17:50:07;1.95;;;0.20;;
45039;SDS011;30778;53.574;7.770;2022-10-18T17:52:33;1.73;;;0.10;;
45039;SDS011;30778;53.574;7.770;2022-10-18T17:54:58;1.05;;;0.40;;